Takhtoyamsk Airport

RU-0555 · 俄罗斯

METAR RU-0555 · Takhtoyamsk Airport

14 六月 15:30 LT
26m
使用的METAR站距离机场222 km。
罗盘
风向 的 风向 140° Takhtoyamsk Airport 15/33
风: 6 kt, 2 beaufort

5 kt

改变
0 ft 1.000 2.000 3.000 4.000 5.000
Cloud Cloud Cloud Cloud Cloud Cloud
BKN 4.000
METAR UHMM 140430Z 14003MPS 9999 BKN040CB 18/06 Q1008 R10/70D NOSIG RMK QFE741 R28/21003MPS

METAR Takhtoyamsk Airport - RU-0555

该字段位于俄罗斯中。 该机场位于纬度60,19455和经度154,67411。 该机场有一条跑道: 15/33. 这个机场没有ICAO代码,我们使用RU-0555作为参考。 机场在Magadan East FIR中。

该航空气象观测是针对Sokol Airport在2024年6月14日 15:30, 当地时间进行的。

机场观察

风向为140°,速度为6 kt。

可见度为10 km 或者更多。

有碎云 积雨云在4.000 ft的高度。 破损或更高的上限为4.000 ft。

温度和风寒是18 °C。 露点为6 °C,相对湿度为46%。 海平面上的气压为1008 hPa (QNH)。

白天

今天,太阳从03:15升起,在22:07降落。 这适用于Takhtoyamsk Airport,世界夏令时可能有所不同。 当地时间与世界标准时间之间的时差为+11 小时。 夏令时目前正在进行中。

公司介绍

我们没有关于这个机场的公司信息。

体会

到Vliegles.nl去找飞行课程,跳伞和其他飞行体验。 浏览页面,了解Takhtoyamsk Airport附近所有可用的活动。 你也可以使用搜索功能来寻找你所在地附近的特定飞行课程、跳伞或其他飞行体验。

跑道

Id 标题 侧风 逆风 侧风 %
15/33 137°-317° 5 kt 5 %

逆风成分最大的方向会被突出显示,并用于横风计算。 这并不一定意味着这个方向在使用。

乌云

4.000 ft BKN 碎云 积雨云

温度 & 天气

温度 18 °C
露点 6 °C
相对湿度 46%
Kp-index 0 (0-9)

评论

QFE741未知降水 结束于 74, 结束于
R28/21003MPS

白天

日出
03:34
中午
12:57
日落
22:20 (6:24)

小工具

你想在你的网站上有一个关于Takhtoyamsk Airport的当前航空天气(METAR)的小部件吗?

显示HTML代码
报告变更